LTAD/ANK METAR and TAF weather

Enter ICAO airport designator
Station Type Date Time Source
LTAD METAR 2019/06/17 13:50 UTC NOAA

LTAD 171350Z 34006KT 300V020 9999 BKN040TCU 20/15 Q1012 RETSRA NOSIG RMK RWY29 33006KT


Station Type Date Time Source
LTAD Decoded METAR 2019/06/17 13:50 UTC NOAA

Ankara / Etimesgut, Turkey (LTAD) 39-57N 032-41E 806M
Jun 17, 2019 - 09:50 AM EDT / 2019.06.17 1350 UTC
Wind: from the NNW (340 degrees) at 7 MPH (6 KT) (direction variable):0
Visibility: greater than 7 mile(s):0
Sky conditions: mostly cloudy
Weather: Towering cumulus clouds observed
Temperature: 68 F (20 C)
Dew Point: 59 F (15 C)
Relative Humidity: 72%
Pressure (altimeter): 29.88 in. Hg (1012 hPa)
ob: LTAD 171350Z 34006KT 300V020 9999 BKN040TCU 20/15 Q1012 RETSRA NOSIG RMK RWY29 33006KT
cycle: 14

Station Type Date Time Source
LTAD TAF UTC NOAA

Error!

Example: see airport list